Time;durP1;ratioP1;P1;durP2;ratioP2;P2;SDS_P1;SDS_P2;PMS_P1;PMS_P2;Temp;Humidity;BMP_temperature;BMP_pressure;BME280_temperature;BME280_humidity;BME280_pressure;Samples;Min_cycle;Max_cycle;Signal;HPM_P1;HPM_P2
2022/04/29 00:02:08;;;;;;;;;12.00;12.00;;;;;20.35;34.54;102178.44;5078854;28;45621;-48
2022/04/29 00:04:36;;;;;;;;;12.50;12.00;;;;;20.36;34.38;102177.53;5078260;27;45454;-48
2022/04/29 00:07:02;;;;;;;;;17.00;13.75;;;;;20.35;35.05;102175.81;5078331;27;45392;-48
2022/04/29 00:09:28;;;;;;;;;12.75;12.75;;;;;20.35;34.58;102167.91;5078202;27;45245;-48
2022/04/29 00:11:54;;;;;;;;;12.75;12.75;;;;;20.35;34.61;102164.44;5078385;27;45254;-52
2022/04/29 00:14:20;;;;;;;;;14.50;14.25;;;;;20.36;34.93;102171.41;5077761;28;46311;-51
2022/04/29 00:16:47;;;;;;;;;12.25;12.25;;;;;20.34;34.94;102167.97;5078026;27;45886;-47
2022/04/29 00:19:13;;;;;;;;;14.25;12.25;;;;;20.35;34.75;102173.19;5078576;27;45327;-48
2022/04/29 00:21:40;;;;;;;;;17.50;14.50;;;;;20.35;35.01;102162.66;5078658;27;45494;-47
2022/04/29 00:24:06;;;;;;;;;13.50;13.00;;;;;20.36;35.17;102158.25;5077949;27;46426;-49
2022/04/29 00:26:32;;;;;;;;;15.50;13.50;;;;;20.35;35.06;102154.75;5077918;27;45325;-48
2022/04/29 00:28:57;;;;;;;;;13.25;11.00;;;;;20.34;34.42;102144.28;5078079;28;45308;-48
2022/04/29 00:31:22;;;;;;;;;9.75;8.50;;;;;20.35;34.53;102143.38;5078073;28;45600;-48
2022/04/29 00:33:47;;;;;;;;;16.25;13.75;;;;;20.34;34.93;102142.50;5077689;28;47103;-48
2022/04/29 00:36:14;;;;;;;;;15.25;13.25;;;;;20.34;35.08;102145.13;5078097;28;45266;-48
2022/04/29 00:38:39;;;;;;;;;13.25;12.25;;;;;20.32;35.18;102139.06;5077652;28;45355;-47
2022/04/29 00:41:05;;;;;;;;;15.75;13.25;;;;;20.35;35.39;102141.59;5076605;28;45510;-48
2022/04/29 00:43:30;;;;;;;;;16.25;14.75;;;;;20.34;34.92;102137.22;5077591;28;46102;-48
2022/04/29 00:45:55;;;;;;;;;16.00;14.25;;;;;20.34;35.18;102137.22;5077567;28;45216;-48
2022/04/29 00:48:21;;;;;;;;;13.75;13.75;;;;;20.35;35.34;102140.72;5077587;28;45268;-49
2022/04/29 00:50:46;;;;;;;;;16.00;14.25;;;;;20.33;35.08;102132.03;5077999;27;45364;-48
2022/04/29 00:53:12;;;;;;;;;14.00;12.75;;;;;20.32;35.01;102120.66;5077686;28;46327;-48
2022/04/29 00:55:40;;;;;;;;;16.75;13.50;;;;;20.33;34.81;102130.28;5077588;27;45447;-47
2022/04/29 00:58:16;;;;;;;;;16.00;14.75;;;;;20.32;35.51;102133.81;5077686;27;45499;-47
2022/04/29 01:00:41;;;;;;;;;11.75;10.25;;;;;20.30;35.34;102135.63;5078110;28;45416;-48
2022/04/29 01:03:11;;;;;;;;;10.75;10.25;;;;;20.32;35.29;102133.81;5077397;27;45973;-48
2022/04/29 01:05:39;;;;;;;;;16.00;14.00;;;;;20.31;35.26;102126.81;5077437;27;45829;-47
2022/04/29 01:08:05;;;;;;;;;12.25;12.25;;;;;20.30;35.60;102119.84;5077416;27;45337;-49
2022/04/29 01:10:30;;;;;;;;;15.50;12.00;;;;;20.31;35.26;102123.31;5077616;27;45477;-48
2022/04/29 01:12:58;;;;;;;;;17.00;16.00;;;;;20.30;35.30;102114.56;5076983;28;46095;-49
2022/04/29 01:15:23;;;;;;;;;17.00;15.25;;;;;20.26;35.33;102110.31;5077313;27;45355;-47
2022/04/29 01:17:53;;;;;;;;;15.50;12.75;;;;;20.29;35.28;102118.09;5077410;28;45353;-47
2022/04/29 01:20:23;;;;;;;;;15.25;14.75;;;;;20.28;35.49;102111.13;5077596;27;45493;-49
2022/04/29 01:22:48;;;;;;;;;15.50;15.50;;;;;20.26;35.52;102101.56;5077073;27;46267;-49
2022/04/29 01:25:14;;;;;;;;;17.75;15.75;;;;;20.27;35.56;102109.41;5077370;28;45238;-48
2022/04/29 01:27:39;;;;;;;;;14.75;13.25;;;;;20.27;35.68;102098.88;5077217;27;45319;-47
2022/04/29 01:30:12;;;;;;;;;13.75;11.50;;;;;20.26;35.04;102097.16;5077298;27;45153;-47
2022/04/29 01:32:39;;;;;;;;;13.50;12.75;;;;;20.24;35.49;102089.31;5077132;28;45467;-49
2022/04/29 01:35:06;;;;;;;;;14.50;13.00;;;;;20.26;35.64;102099.78;5076815;27;45365;-48
2022/04/29 01:37:32;;;;;;;;;12.25;12.25;;;;;20.25;35.48;102103.31;5077093;27;45339;-47
2022/04/29 01:39:57;;;;;;;;;16.50;13.00;;;;;20.25;35.51;102100.69;5077114;28;45492;-47
2022/04/29 01:42:23;;;;;;;;;16.00;14.75;;;;;20.26;35.20;102110.31;5076668;27;45370;-48
2022/04/29 01:44:49;;;;;;;;;15.25;13.25;;;;;20.24;35.38;102106.84;5076733;27;45299;-46
2022/04/29 01:47:15;;;;;;;;;13.25;12.75;;;;;20.20;35.52;102105.25;5077142;27;45424;-47
2022/04/29 01:49:41;;;;;;;;;19.25;16.75;;;;;20.21;35.24;102109.63;5075926;27;45494;-58
2022/04/29 01:52:06;;;;;;;;;17.00;16.00;;;;;20.20;35.34;102100.00;5076670;27;45452;-48
2022/04/29 01:54:32;;;;;;;;;17.25;16.25;;;;;20.19;35.72;102104.38;5076574;27;45255;-47
2022/04/29 01:56:58;;;;;;;;;17.00;13.75;;;;;20.19;35.45;102104.38;5076772;28;45405;-48
2022/04/29 01:59:23;;;;;;;;;15.50;15.50;;;;;20.20;35.50;102097.38;5076868;28;45547;-48
2022/04/29 02:01:48;;;;;;;;;15.50;15.50;;;;;20.20;35.66;102100.00;5076445;27;46183;-48
2022/04/29 02:04:14;;;;;;;;;16.67;16.33;;;;;20.18;35.52;102093.91;5076718;28;45354;-48
2022/04/29 02:06:40;;;;;;;;;19.50;16.75;;;;;20.18;35.25;102100.03;5076595;27;45251;-48
2022/04/29 02:09:06;;;;;;;;;15.00;13.25;;;;;20.20;35.80;102116.63;5076520;28;45227;-50
2022/04/29 02:11:31;;;;;;;;;15.00;13.75;;;;;20.20;35.28;102118.44;5076356;27;45283;-47
2022/04/29 02:13:57;;;;;;;;;15.75;14.50;;;;;20.19;35.31;102114.06;5076147;28;45267;-48
2022/04/29 02:16:22;;;;;;;;;18.75;15.75;;;;;20.20;35.56;102114.00;5076563;27;45318;-47
2022/04/29 02:18:48;;;;;;;;;14.50;13.25;;;;;20.19;35.30;102119.34;5076986;28;45780;-48
2022/04/29 02:21:13;;;;;;;;;15.50;15.50;;;;;20.19;35.41;102120.19;5076256;28;46077;-48
2022/04/29 02:23:39;;;;;;;;;15.00;13.50;;;;;20.20;35.51;102119.28;5076262;28;45389;-48
2022/04/29 02:26:04;;;;;;;;;14.25;12.75;;;;;20.19;35.61;102112.28;5076356;28;45459;-48
2022/04/29 02:28:31;;;;;;;;;16.00;14.50;;;;;20.19;35.66;102108.81;5076523;27;45655;-46
2022/04/29 02:30:57;;;;;;;;;15.75;15.75;;;;;20.19;35.70;102114.91;5076013;27;47077;-49
2022/04/29 02:33:23;;;;;;;;;16.50;15.00;;;;;20.20;35.37;102128.94;5076098;27;45433;-48
2022/04/29 02:35:49;;;;;;;;;15.50;14.50;;;;;20.20;35.54;102124.53;5075449;28;45339;-47
2022/04/29 02:38:14;;;;;;;;;17.50;16.00;;;;;20.19;35.91;102124.59;5076385;27;45454;-48
2022/04/29 02:40:40;;;;;;;;;15.25;15.25;;;;;20.16;35.75;102122.94;5076088;28;46068;-49
2022/04/29 02:43:05;;;;;;;;;17.75;17.50;;;;;20.16;35.78;102116.78;5074869;28;45301;-47
2022/04/29 02:45:32;;;;;;;;;15.25;14.25;;;;;20.17;35.34;102127.28;5076195;28;45291;-48
2022/04/29 02:47:57;;;;;;;;;15.25;13.50;;;;;20.16;35.91;102133.47;5076312;27;45242;-48
2022/04/29 02:50:23;;;;;;;;;15.50;15.50;;;;;20.16;35.39;102129.97;5075808;28;46062;-49
2022/04/29 02:52:48;;;;;;;;;18.25;16.00;;;;;20.13;35.87;102119.53;5076153;28;45379;-48
2022/04/29 02:55:13;;;;;;;;;17.25;16.00;;;;;20.14;35.54;102126.50;5075931;27;45415;-48
2022/04/29 02:57:39;;;;;;;;;19.00;16.50;;;;;20.16;35.85;102116.78;5075991;28;45333;-47
2022/04/29 03:00:05;;;;;;;;;16.00;15.00;;;;;20.16;35.93;102119.44;5075598;28;50225;-48
2022/04/29 03:02:30;;;;;;;;;20.50;17.25;;;;;20.17;35.32;102123.78;5078989;27;45924;-47
2022/04/29 03:04:55;;;;;;;;;15.25;15.00;;;;;20.16;35.67;102117.66;5079369;28;45276;-47
2022/04/29 03:07:21;;;;;;;;;17.50;17.50;;;;;20.16;35.76;102120.31;5079822;28;45658;-47
2022/04/29 03:09:48;;;;;;;;;20.25;16.25;;;;;20.15;35.63;102118.59;5079526;27;45362;-47
2022/04/29 03:12:14;;;;;;;;;15.25;14.25;;;;;20.15;35.53;102115.06;5079183;28;45237;-47
2022/04/29 03:14:40;;;;;;;;;20.25;18.00;;;;;20.14;35.23;102115.97;5078992;27;45434;-48
2022/04/29 03:17:06;;;;;;;;;20.25;15.50;;;;;20.15;35.85;102115.06;5078001;28;45239;-48
2022/04/29 03:19:31;;;;;;;;;18.00;16.25;;;;;20.14;35.77;102110.72;5078945;27;45473;-48
2022/04/29 03:21:56;;;;;;;;;23.00;19.25;;;;;20.14;35.70;102111.59;5079014;28;45281;-48
2022/04/29 03:24:22;;;;;;;;;17.75;15.75;;;;;20.14;35.34;102102.81;5079365;28;45315;-48
2022/04/29 03:26:47;;;;;;;;;16.75;14.00;;;;;20.13;35.09;102107.25;5079497;27;45530;-48
2022/04/29 03:29:13;;;;;;;;;18.50;16.25;;;;;20.14;35.56;102108.09;5079086;28;46103;-49
2022/04/29 03:31:38;;;;;;;;;18.25;14.25;;;;;20.13;35.70;102112.50;5078855;27;45401;-48
2022/04/29 03:34:04;;;;;;;;;16.00;15.75;;;;;20.12;35.14;102105.50;5078977;28;45345;-48
2022/04/29 03:36:29;;;;;;;;;17.75;15.75;;;;;20.13;35.47;102109.00;5079043;27;45442;-48
2022/04/29 03:38:55;;;;;;;;;15.00;13.00;;;;;20.13;35.07;102103.72;5078737;27;46283;-48
2022/04/29 03:41:20;;;;;;;;;16.00;15.75;;;;;20.13;35.33;102101.09;5079084;28;45390;-50
2022/04/29 03:43:46;;;;;;;;;17.25;15.75;;;;;20.11;35.77;102095.03;5078844;28;45383;-47
2022/04/29 03:46:11;;;;;;;;;19.25;18.00;;;;;20.10;35.38;102086.28;5078889;28;45619;-49
2022/04/29 03:51:20;;;;;;;;;20.00;17.25;;;;;20.08;35.06;102080.19;5078902;28;45895;-47
2022/04/29 03:53:48;;;;;;;;;18.00;15.25;;;;;20.07;35.69;102076.72;5078622;27;45380;-47
2022/04/29 03:56:14;;;;;;;;;16.50;16.25;;;;;20.08;35.49;102075.81;5078962;27;45270;-47
2022/04/29 03:58:39;;;;;;;;;24.25;21.50;;;;;20.07;35.19;102076.72;5078373;27;46135;-47
2022/04/29 04:01:05;;;;;;;;;16.67;15.33;;;;;20.06;35.18;102069.72;5078087;28;48742;-51
2022/04/29 04:03:30;;;;;;;;;14.00;14.00;;;;;20.07;35.49;102065.31;5078398;28;45346;-48
2022/04/29 04:08:39;;;;;;;;;18.25;16.25;;;;;20.04;35.42;102061.03;5078115;28;45848;-48
2022/04/29 04:11:05;;;;;;;;;18.75;16.75;;;;;20.05;35.30;102065.38;5078281;27;45266;-48
2022/04/29 04:13:30;;;;;;;;;19.75;16.00;;;;;20.04;35.19;102068.91;5077247;28;45538;-50
2022/04/29 04:15:55;;;;;;;;;22.00;20.25;;;;;20.04;35.27;102071.53;5078633;27;45302;-49
2022/04/29 04:18:21;;;;;;;;;20.00;15.75;;;;;20.04;35.33;102068.91;5078155;28;50241;-50
2022/04/29 04:20:48;;;;;;;;;17.50;17.50;;;;;20.02;35.59;102068.09;5078044;28;45318;-50
2022/04/29 04:23:14;;;;;;;;;20.25;17.75;;;;;20.02;34.94;102062.00;5078251;28;45452;-48
2022/04/29 04:25:39;;;;;;;;;17.25;13.50;;;;;20.04;35.60;102066.28;5078264;27;45515;-52
2022/04/29 04:28:05;;;;;;;;;20.25;17.25;;;;;20.04;35.41;102070.69;5077893;27;45351;-49
2022/04/29 04:30:30;;;;;;;;;18.00;18.00;;;;;20.01;35.12;102060.28;5077880;28;45354;-50
2022/04/29 04:32:55;;;;;;;;;20.75;19.25;;;;;20.04;35.53;102075.97;5077857;27;45389;-50
2022/04/29 04:35:21;;;;;;;;;16.00;15.75;;;;;20.02;35.69;102073.38;5078362;28;45301;-48
2022/04/29 04:37:47;;;;;;;;;18.75;15.50;;;;;20.03;35.53;102077.72;5077686;28;45393;-49
2022/04/29 04:40:12;;;;;;;;;15.75;15.75;;;;;20.02;35.26;102081.25;5076573;28;45384;-51
2022/04/29 04:42:45;;;;;;;;;18.50;16.75;;;;;20.02;35.85;102073.38;5078035;28;45770;-46
2022/04/29 04:45:10;;;;;;;;;18.25;16.50;;;;;20.01;35.36;102076.91;5078098;27;45408;-50
2022/04/29 04:47:35;;;;;;;;;16.00;13.25;;;;;20.01;35.87;102079.53;5077458;28;45443;-48
2022/04/29 04:50:01;;;;;;;;;17.33;17.33;;;;;20.02;35.80;102078.63;5077236;28;52176;-48
2022/04/29 04:52:26;;;;;;;;;25.75;19.25;;;;;19.99;35.51;102076.13;5077602;28;45310;-49
2022/04/29 04:54:52;;;;;;;;;20.00;15.25;;;;;19.99;35.16;102077.88;5078074;27;45488;-49
2022/04/29 04:57:17;;;;;;;;;19.75;18.25;;;;;20.01;35.42;102087.44;5077428;27;45298;-48
2022/04/29 04:59:42;;;;;;;;;15.75;13.00;;;;;20.02;35.87;102083.03;5077291;28;45255;-48
2022/04/29 05:02:08;;;;;;;;;23.00;19.50;;;;;20.00;35.68;102085.75;5077610;27;45420;-48
2022/04/29 05:04:33;;;;;;;;;17.50;16.25;;;;;20.00;35.67;102085.75;5077603;28;45247;-47
2022/04/29 05:06:59;;;;;;;;;15.50;13.75;;;;;20.01;35.07;102091.84;5077315;27;45353;-49
2022/04/29 05:09:24;;;;;;;;;20.00;19.00;;;;;19.98;35.07;102084.06;5077576;27;45390;-49
2022/04/29 05:11:50;;;;;;;;;19.75;17.50;;;;;20.00;35.19;102084.88;5077405;28;45443;-48
2022/04/29 05:14:15;;;;;;;;;17.00;16.75;;;;;19.97;35.49;102093.72;5077118;27;45506;-50
2022/04/29 05:16:41;;;;;;;;;18.25;16.50;;;;;19.98;35.15;102094.56;5077034;27;46186;-48
2022/04/29 05:19:06;;;;;;;;;19.25;16.25;;;;;19.97;35.63;102104.25;5077187;28;45246;-48
2022/04/29 05:21:31;;;;;;;;;20.75;17.00;;;;;19.96;35.55;102101.66;5077198;28;45384;-48
2022/04/29 05:23:57;;;;;;;;;20.50;19.00;;;;;19.93;35.57;102092.09;5077469;27;45639;-49
2022/04/29 05:26:22;;;;;;;;;19.00;17.75;;;;;19.93;35.36;102086.84;5077121;28;45333;-49
2022/04/29 05:28:47;;;;;;;;;19.75;16.75;;;;;19.93;35.09;102094.72;5076921;28;45215;-48
2022/04/29 05:31:13;;;;;;;;;20.00;18.00;;;;;19.92;34.99;102098.28;5077088;28;45493;-49
2022/04/29 05:33:39;;;;;;;;;23.75;19.25;;;;;19.91;35.24;102096.53;5077095;27;45377;-49
2022/04/29 05:36:07;;;;;;;;;23.00;18.00;;;;;19.91;35.39;102101.81;5076743;27;46166;-49
2022/04/29 05:44:00;;;;;;;;;17.25;15.75;;;;;19.89;35.17;102103.66;5076855;28;45420;-49
2022/04/29 05:46:26;;;;;;;;;23.75;18.75;;;;;19.91;35.51;102104.44;5076913;27;45420;-48
2022/04/29 05:48:51;;;;;;;;;19.25;15.50;;;;;19.89;35.28;102114.19;5076672;27;45299;-48
2022/04/29 05:51:17;;;;;;;;;19.00;17.50;;;;;19.89;34.98;102115.03;5076796;27;45323;-48
2022/04/29 05:53:42;;;;;;;;;17.00;15.50;;;;;19.89;35.34;102106.28;5076943;27;45576;-47
2022/04/29 05:56:08;;;;;;;;;17.50;14.50;;;;;19.89;35.45;102108.91;5076581;28;46101;-49
2022/04/29 05:58:33;;;;;;;;;18.25;14.75;;;;;19.89;35.14;102108.91;5076591;27;45452;-48
2022/04/29 06:00:58;;;;;;;;;20.50;17.25;;;;;19.89;35.35;102111.53;5077073;27;45298;-48
2022/04/29 06:03:24;;;;;;;;;23.50;17.50;;;;;19.88;35.24;102120.34;5076740;28;45206;-47
2022/04/29 06:05:50;;;;;;;;;16.75;16.25;;;;;19.87;35.19;102124.72;5076458;27;46338;-48
2022/04/29 06:08:15;;;;;;;;;18.75;15.00;;;;;19.87;35.00;102129.16;5074727;28;45417;-51
2022/04/29 06:10:40;;;;;;;;;20.67;17.67;;;;;19.87;35.22;102134.41;5076248;28;45274;-48
2022/04/29 06:13:08;;;;;;;;;22.25;18.25;;;;;19.88;35.39;102136.13;5076370;28;45518;-47
2022/04/29 06:15:34;;;;;;;;;17.50;14.50;;;;;19.88;35.40;102138.75;5075972;28;45444;-48
2022/04/29 06:17:59;;;;;;;;;15.75;12.00;;;;;19.88;34.99;102133.50;5076578;27;45387;-49
2022/04/29 06:20:25;;;;;;;;;16.00;14.25;;;;;19.89;35.34;102135.22;5075367;28;45285;-48
2022/04/29 06:22:50;;;;;;;;;21.67;16.00;;;;;19.90;35.21;102140.44;5076301;28;45715;-48
2022/04/29 06:25:18;;;;;;;;;20.00;16.75;;;;;19.91;35.19;102141.28;5076096;28;46019;-51
2022/04/29 06:27:43;;;;;;;;;18.00;17.00;;;;;19.90;35.63;102143.06;5076257;27;45858;-51
2022/04/29 06:30:09;;;;;;;;;20.67;15.33;;;;;19.90;35.79;102143.06;5076068;28;45358;-49
2022/04/29 06:32:35;;;;;;;;;19.50;19.25;;;;;19.91;35.47;102146.53;5076345;27;45532;-50
2022/04/29 06:35:01;;;;;;;;;26.00;18.75;;;;;19.91;35.09;102144.78;5076268;27;45531;-52
2022/04/29 06:37:26;;;;;;;;;22.00;18.50;;;;;19.90;35.68;102148.31;5079534;27;45843;-53
2022/04/29 06:39:52;;;;;;;;;22.25;17.75;;;;;19.91;35.79;102151.78;5079680;28;45270;-53
2022/04/29 06:42:17;;;;;;;;;22.75;19.75;;;;;19.93;35.20;102153.50;5078628;28;45514;-48
2022/04/29 06:44:42;;;;;;;;;17.25;15.00;;;;;19.93;35.31;102144.72;5079607;28;45428;-51
2022/04/29 06:47:08;;;;;;;;;18.67;13.33;;;;;19.93;35.20;102142.09;5079083;27;58403;-51
2022/04/29 06:49:33;;;;;;;;;19.75;18.50;;;;;19.93;35.24;102147.34;5079569;28;45184;-51
2022/04/29 06:51:58;;;;;;;;;18.33;16.33;;;;;19.95;35.63;102150.81;5079967;28;45662;-51
2022/04/29 06:54:24;;;;;;;;;18.75;15.25;;;;;19.96;35.54;102154.28;5079262;28;46170;-51
2022/04/29 06:56:49;;;;;;;;;18.75;16.75;;;;;19.96;35.20;102146.38;5078247;28;45480;-53
2022/04/29 06:59:14;;;;;;;;;15.25;13.50;;;;;19.93;35.02;102142.97;5078168;28;45436;-49
2022/04/29 07:01:40;;;;;;;;;19.50;16.75;;;;;19.95;35.04;102140.28;5079469;28;45271;-51
2022/04/29 07:04:05;;;;;;;;;19.25;15.25;;;;;19.96;34.94;102147.25;5079177;27;45314;-47
2022/04/29 07:06:31;;;;;;;;;20.25;17.75;;;;;19.95;35.14;102140.28;5079518;28;45343;-50
2022/04/29 07:08:57;;;;;;;;;14.75;14.75;;;;;19.97;34.81;102148.09;5079346;27;45910;-51
2022/04/29 07:11:22;;;;;;;;;18.00;16.50;;;;;19.95;35.18;102149.97;5079574;27;45417;-50
2022/04/29 07:13:48;;;;;;;;;23.00;16.50;;;;;19.96;34.91;102156.91;5078972;27;45608;-53
2022/04/29 07:16:13;;;;;;;;;17.50;15.75;;;;;19.95;34.97;102156.06;5079123;28;45244;-48
2022/04/29 07:18:39;;;;;;;;;16.50;14.50;;;;;19.95;34.94;102156.06;5079126;27;45290;-50
2022/04/29 07:21:05;;;;;;;;;17.25;14.75;;;;;19.95;34.97;102153.44;5079189;28;45526;-49
2022/04/29 07:23:30;;;;;;;;;15.75;13.00;;;;;19.95;35.18;102161.31;5079004;28;46355;-51
2022/04/29 07:25:55;;;;;;;;;19.75;16.75;;;;;19.94;35.33;102164.88;5078806;27;45314;-53
2022/04/29 07:28:21;;;;;;;;;16.00;15.50;;;;;19.92;35.19;102162.28;5078985;28;45215;-49
2022/04/29 07:30:47;;;;;;;;;23.75;18.75;;;;;19.93;35.23;102168.41;5079076;27;45526;-48
2022/04/29 07:33:13;;;;;;;;;17.50;16.25;;;;;19.93;35.22;102165.78;5067483;27;45519;-50
2022/04/29 07:43:50;;;;;;;;;18.25;16.50;;;;;19.92;35.57;102177.19;5057803;28;45228;-51
2022/04/29 07:46:16;;;;;;;;;20.50;18.00;;;;;19.91;35.73;102172.84;5058107;28;45887;-51
2022/04/29 07:48:42;;;;;;;;;19.75;18.75;;;;;19.92;35.69;102167.56;5055135;28;45421;-49
2022/04/29 07:51:07;;;;;;;;;27.00;21.00;;;;;19.91;35.39;102164.97;5058270;28;45553;-49
2022/04/29 07:53:34;;;;;;;;;25.25;19.75;;;;;19.93;35.49;102165.78;5058164;28;45253;-52
2022/04/29 07:55:59;;;;;;;;;21.00;17.75;;;;;19.89;35.65;102158.91;5058110;28;45451;-54
2022/04/29 07:58:25;;;;;;;;;24.75;19.25;;;;;19.92;35.84;102172.81;5068096;28;45707;-55
2022/04/29 08:00:50;;;;;;;;;21.00;18.00;;;;;19.93;36.00;102171.91;5078149;28;51534;-53
2022/04/29 08:03:15;;;;;;;;;27.00;18.50;;;;;19.92;35.86;102174.56;5078040;28;46107;-54
2022/04/29 08:05:41;;;;;;;;;18.75;16.75;;;;;19.89;35.64;102166.81;5078235;27;45387;-52
2022/04/29 08:08:06;;;;;;;;;21.25;16.00;;;;;19.92;35.77;102162.28;5078111;27;45383;-53
2022/04/29 08:10:32;;;;;;;;;21.00;18.25;;;;;19.91;35.66;102163.19;5078695;27;45441;-52
2022/04/29 08:12:59;;;;;;;;;24.25;21.25;;;;;19.93;35.72;102168.41;5077841;27;46331;-54
2022/04/29 08:15:26;;;;;;;;;25.25;22.50;;;;;19.93;35.62;102163.16;5078178;27;45247;-55
2022/04/29 08:17:51;;;;;;;;;29.00;22.25;;;;;19.93;35.45;102163.16;5078216;27;45347;-52
2022/04/29 08:20:16;;;;;;;;;19.50;17.00;;;;;19.90;35.75;102164.09;5078462;28;45302;-48
2022/04/29 08:22:42;;;;;;;;;25.00;21.75;;;;;19.92;35.60;102166.69;5078070;28;46062;-49
2022/04/29 08:25:08;;;;;;;;;17.25;14.25;;;;;19.91;35.67;102170.22;5078158;27;45362;-50
2022/04/29 08:27:33;;;;;;;;;25.25;19.75;;;;;19.95;35.89;102177.13;5078482;27;45239;-54
2022/04/29 08:29:59;;;;;;;;;23.50;22.50;;;;;19.95;36.02;102166.59;5078278;27;45409;-53
2022/04/29 08:32:25;;;;;;;;;23.00;20.75;;;;;19.95;35.81;102177.13;5077772;28;46176;-50
2022/04/29 08:34:50;;;;;;;;;24.25;19.00;;;;;19.95;35.83;102176.28;5077865;28;45438;-48
2022/04/29 08:37:18;;;;;;;;;27.75;21.25;;;;;19.95;36.11;102176.28;5077953;27;45385;-52
2022/04/29 08:39:43;;;;;;;;;28.00;26.25;;;;;19.94;35.98;102178.03;5078132;27;45291;-52
2022/04/29 08:42:10;;;;;;;;;26.25;20.00;;;;;19.96;35.97;102172.69;5077784;28;46536;-52
2022/04/29 08:44:38;;;;;;;;;27.50;24.50;;;;;19.92;35.94;102167.56;5078112;27;45340;-50
2022/04/29 08:47:05;;;;;;;;;21.50;20.75;;;;;19.93;36.15;102171.91;5078171;27;45397;-50
2022/04/29 08:49:32;;;;;;;;;21.25;18.75;;;;;19.96;35.78;102178.84;5076584;28;45498;-53
2022/04/29 08:51:57;;;;;;;;;26.00;23.00;;;;;19.96;35.63;102177.97;5077573;27;46498;-49
2022/04/29 08:59:58;;;;;;;;;26.00;23.75;;;;;19.95;36.30;102171.84;5077011;28;45418;-49
2022/04/29 09:02:25;;;;;;;;;28.00;23.25;;;;;19.99;36.44;102178.75;5077295;28;46284;-49
2022/04/29 09:04:53;;;;;;;;;27.00;21.00;;;;;19.99;36.17;102173.50;5077217;28;45955;-49
2022/04/29 09:07:19;;;;;;;;;26.25;22.75;;;;;20.01;36.01;102184.81;5076220;28;45475;-49
2022/04/29 09:09:44;;;;;;;;;30.25;27.50;;;;;20.01;36.35;102178.69;5077623;27;45188;-50
2022/04/29 09:12:16;;;;;;;;;25.50;25.50;;;;;20.02;36.19;102176.00;5077155;28;45271;-50
2022/04/29 09:14:42;;;;;;;;;24.50;23.25;;;;;20.03;36.44;102175.09;5076770;27;45951;-52
2022/04/29 09:17:26;;;;;;;;;29.00;22.25;;;;;20.04;36.14;102174.19;5077594;27;45266;-48
2022/04/29 09:19:51;;;;;;;;;24.50;22.50;;;;;20.03;36.17;102169.84;5077567;27;45431;-48
2022/04/29 09:22:17;;;;;;;;;28.75;23.75;;;;;20.06;36.18;102171.53;5077077;27;45968;-51
2022/04/29 09:24:42;;;;;;;;;27.75;24.50;;;;;20.08;36.42;102173.19;5077059;28;45320;-49
2022/04/29 09:27:07;;;;;;;;;23.25;21.25;;;;;20.10;36.48;102164.38;5077565;27;45334;-51
2022/04/29 09:29:42;;;;;;;;;25.75;23.50;;;;;20.11;35.91;102166.13;5077329;27;45442;-52
2022/04/29 09:32:08;;;;;;;;;29.00;24.50;;;;;20.11;36.35;102166.13;5077204;28;46105;-52
2022/04/29 09:34:53;;;;;;;;;26.00;22.75;;;;;20.10;36.56;102156.50;5077074;28;45235;-49
2022/04/29 09:37:21;;;;;;;;;33.50;27.50;;;;;20.11;36.23;102161.69;5077035;27;45414;-48
2022/04/29 09:40:11;;;;;;;;;28.50;24.50;;;;;20.12;36.08;102163.41;5077288;27;45318;-50
2022/04/29 09:42:42;;;;;;;;;33.00;28.00;;;;;20.13;36.53;102161.63;5077097;27;46357;-49
2022/04/29 09:45:17;;;;;;;;;29.50;27.75;;;;;20.13;36.07;102153.75;5077135;27;45298;-49
2022/04/29 09:47:43;;;;;;;;;28.00;25.75;;;;;20.15;36.62;102157.19;5077034;27;45314;-49
2022/04/29 09:50:08;;;;;;;;;22.50;21.75;;;;;20.15;36.30;102151.91;5076003;28;45267;-51
2022/04/29 09:52:39;;;;;;;;;30.00;26.00;;;;;20.16;36.15;102154.53;5076540;27;46221;-46
2022/04/29 09:55:15;;;;;;;;;27.25;21.25;;;;;20.17;36.46;102148.34;5076650;27;45322;-51
2022/04/29 09:57:52;;;;;;;;;26.75;24.00;;;;;20.18;36.46;102146.56;5077079;27;45326;-49
2022/04/29 10:00:18;;;;;;;;;28.75;24.00;;;;;20.18;35.95;102149.19;5076699;27;45176;-51
2022/04/29 10:02:44;;;;;;;;;26.75;23.50;;;;;20.19;36.54;102143.03;5076389;27;46262;-53
2022/04/29 10:05:09;;;;;;;;;25.00;22.25;;;;;20.18;35.98;102150.03;5075571;28;45450;-47
2022/04/29 10:07:35;;;;;;;;;29.50;21.75;;;;;20.17;36.35;102147.47;5076463;28;45302;-51
2022/04/29 10:10:04;;;;;;;;;28.75;25.00;;;;;20.19;36.61;102148.28;5076769;28;45962;-49
2022/04/29 10:12:31;;;;;;;;;23.25;20.50;;;;;20.19;36.63;102149.13;5079478;27;45949;-46
2022/04/29 10:14:58;;;;;;;;;19.75;19.50;;;;;20.20;36.23;102152.66;5079805;28;45459;-52
2022/04/29 10:23:06;;;;;;;;;27.75;24.50;;;;;20.21;36.77;102149.09;5080058;28;45317;-49
2022/04/29 10:25:34;;;;;;;;;25.00;25.00;;;;;20.20;36.30;102147.38;5080151;27;45903;-51
2022/04/29 10:28:03;;;;;;;;;19.75;18.25;;;;;20.22;36.57;102153.47;5080036;27;45391;-52
2022/04/29 10:30:33;;;;;;;;;26.75;23.00;;;;;20.21;36.69;102152.59;5080039;27;45398;-53
2022/04/29 10:33:05;;;;;;;;;22.75;19.75;;;;;20.23;36.45;102155.16;5078289;28;46131;-52
2022/04/29 10:35:39;;;;;;;;;23.00;23.00;;;;;20.24;36.46;102151.63;5079494;28;45947;-48
2022/04/29 10:38:31;;;;;;;;;22.25;18.50;;;;;20.24;36.35;102151.63;5079718;28;45460;-52
2022/04/29 10:41:20;;;;;;;;;24.75;22.75;;;;;20.25;36.51;102150.72;5079803;27;45218;-49
2022/04/29 10:43:50;;;;;;;;;20.75;19.00;;;;;20.24;36.30;102151.63;5068950;28;47617;-51
2022/04/29 10:46:16;;;;;;;;;21.75;18.25;;;;;20.26;36.43;102149.78;5079654;27;45255;-51
2022/04/29 10:48:42;;;;;;;;;23.25;21.50;;;;;20.25;36.09;102140.16;5079918;28;45278;-48
2022/04/29 10:51:16;;;;;;;;;26.50;21.75;;;;;20.27;36.03;102146.25;5079842;27;45260;-49
2022/04/29 10:53:43;;;;;;;;;23.00;19.50;;;;;20.27;36.35;102135.72;5079656;27;45505;-51
2022/04/29 10:56:30;;;;;;;;;21.00;21.00;;;;;20.30;36.47;102134.75;5079529;28;45904;-53
2022/04/29 10:58:59;;;;;;;;;26.25;22.75;;;;;20.31;36.12;102141.75;5079315;28;45417;-49
2022/04/29 11:01:25;;;;;;;;;24.75;18.00;;;;;20.30;36.18;102138.25;5079516;28;45355;-50
2022/04/29 11:03:51;;;;;;;;;23.50;18.50;;;;;20.31;36.35;102139.97;5079113;27;46159;-53
2022/04/29 11:06:17;;;;;;;;;22.25;20.00;;;;;20.32;36.76;102146.09;5079198;27;45269;-49
2022/04/29 11:08:44;;;;;;;;;17.50;15.50;;;;;20.33;36.02;102140.81;5079574;28;45329;-49
2022/04/29 11:11:10;;;;;;;;;22.25;20.75;;;;;20.32;36.14;102133.81;5078459;28;45359;-51
2022/04/29 11:13:42;;;;;;;;;21.25;18.00;;;;;20.33;36.19;102132.03;5078688;28;45918;-51
2022/04/29 11:16:10;;;;;;;;;20.25;20.25;;;;;20.34;36.28;102145.13;5079050;27;45216;-54
2022/04/29 11:18:36;;;;;;;;;22.25;19.75;;;;;20.34;36.06;102137.22;5079208;27;45477;-54
2022/04/29 11:24:40;;;;;;;;;23.00;18.50;;;;;20.36;36.09;102131.94;5079293;27;45445;-51
2022/04/29 11:26:43;;;;;;;;;23.50;19.50;;;;;20.35;36.23;102123.16;5078797;28;45255;-54
2022/04/29 11:29:10;;;;;;;;;21.00;19.75;;;;;20.37;36.44;102123.97;5079115;27;45385;-53
2022/04/29 11:31:36;;;;;;;;;24.75;21.00;;;;;20.38;36.17;102125.69;5079029;27;45363;-54
2022/04/29 11:34:06;;;;;;;;;19.75;19.75;;;;;20.38;36.24;102123.06;5077441;28;47182;-50
2022/04/29 11:36:31;;;;;;;;;17.00;17.00;;;;;20.39;36.19;102119.50;5078789;27;45359;-50
2022/04/29 11:38:57;;;;;;;;;21.25;18.75;;;;;20.40;36.34;102115.09;5079049;27;45340;-53
2022/04/29 11:41:27;;;;;;;;;28.75;20.00;;;;;20.41;36.74;102115.97;5078836;27;45472;-49